Diomidis — D5GL9 — position and weather

sailwx.info

Track history (hours):
 
Tides and Currents Weather Stations Pressure Air Temp Water Temp Dewpoint Dewpoint Depression Visibility Wind Speed Wind Dir Waves Ship Positions

Diomidis

Last reported at 2017-Oct-20 20:44 UTC. Time now 2017-Nov-24 07:45 UTC.
Position N 03°49' W 007°33'.
Warning: this ship's position is 34 days out of date.

Length 199 m; draft 9.6 m.

Type: Cargo ship. MMSI: 636016499.

Date/timePositionNaut miles runAvg speedWind from/ knotsBaromVisibWave heightAir tempDewpointWater temp
2017-Oct-20 20:44N 03°49' W 007°33'314.3
2017-Oct-20 20:30N 03°49' W 007°36'714.1
2017-Oct-20 20:00N 03°49' W 007°43'714.3
2017-Oct-20 19:29N 03°49' W 007°50'  
2017-Oct-15 11:55N 26°58' W 015°42'713.8
2017-Oct-15 11:26N 27°04' W 015°39'713.8
2017-Oct-15 10:56N 27°10' W 015°36'814.0
2017-Oct-15 10:22N 27°17' W 015°32'614.4
2017-Oct-15 09:59N 27°22' W 015°29'1714.5
2017-Oct-15 08:49N 27°36' W 015°18'413.9
2017-Oct-15 08:31N 27°40' W 015°16'713.7
2017-Oct-15 08:00N 27°45' W 015°11'713.7
2017-Oct-15 07:30N 27°51' W 015°07'713.8
2017-Oct-15 07:01N 27°58' W 015°05'713.9
2017-Oct-15 06:31N 28°04' W 015°02'713.7
2017-Oct-15 06:00N 28°11' W 014°59'714.0
2017-Oct-15 05:31N 28°17' W 014°56'714.2
2017-Oct-15 05:01N 28°24' W 014°53'714.0
2017-Oct-15 04:31N 28°30' W 014°51'713.6
2017-Oct-15 04:00N 28°37' W 014°47'714.0
2017-Oct-15 03:30N 28°43' W 014°44'714.3
2017-Oct-15 03:00N 28°49' W 014°40'714.3
2017-Oct-15 02:30N 28°56' W 014°37'714.2
2017-Oct-15 02:00N 29°02' W 014°34'714.2
2017-Oct-15 01:30N 29°09' W 014°30'714.3
2017-Oct-15 01:00N 29°15' W 014°27'7113.6
2017-Oct-14 19:48N 30°20' W 013°53'413.6
2017-Oct-14 19:30N 30°24' W 013°51'713.4
2017-Oct-14 19:00N 30°30' W 013°48'713.6
2017-Oct-14 18:30N 30°36' W 013°45'2813.7
2017-Oct-14 16:27N 31°02' W 013°32'20813.9
2017-Oct-14 01:29N 34°11' W 011°51'2113.4
2017-Oct-13 23:54N 34°31' W 011°41'513.4
2017-Oct-13 23:30N 34°36' W 011°38'713.7
2017-Oct-13 23:00N 34°42' W 011°35'713.6
2017-Oct-13 22:30N 34°48' W 011°31'713.5
2017-Oct-13 22:00N 34°54' W 011°28'713.6
2017-Oct-13 21:30N 35°00' W 011°24'713.7
2017-Oct-13 21:00N 35°07' W 011°21'713.9
2017-Oct-13 20:31N 35°13' W 011°17'714.1
2017-Oct-13 20:01N 35°20' W 011°14'714.0
2017-Oct-13 19:30N 35°26' W 011°11'713.8
2017-Oct-13 19:00N 35°32' W 011°07'713.8
2017-Oct-13 18:30N 35°38' W 011°03'713.9
2017-Oct-13 18:00N 35°45' W 010°60'714.2
2017-Oct-13 17:30N 35°51' W 010°56'714.0
2017-Oct-13 17:00N 35°58' W 010°53'714.0
2017-Oct-13 16:30N 36°04' W 010°49'714.3
2017-Oct-13 16:00N 36°11' W 010°45'714.1
2017-Oct-13 15:30N 36°17' W 010°42'713.7
2017-Oct-13 15:00N 36°23' W 010°39'7013.6
2017-Oct-13 09:52N 37°27' W 010°03'3113.7
2017-Oct-13 07:35N 37°56' W 009°47'113.4
2017-Oct-13 07:30N 37°57' W 009°46'713.1
2017-Oct-13 06:58N 38°03' W 009°43'613.0
2017-Oct-13 06:30N 38°08' W 009°39'713.1
2017-Oct-13 06:00N 38°14' W 009°36'713.6
2017-Oct-13 05:30N 38°20' W 009°33'713.4
2017-Oct-13 05:00N 38°27' W 009°29'613.0
2017-Oct-13 04:30N 38°32' W 009°25'510.5
2017-Oct-13 04:00N 38°37' W 009°23'5 9.7
2017-Oct-13 03:30N 38°40' W 009°18'710.0
2017-Oct-13 02:48N 38°42' W 009°09'2 6.6
2017-Oct-13 02:30N 38°42' W 009°06'0 0.1
2017-Oct-13 02:00N 38°42' W 009°06'0 0.0
2017-Oct-13 01:31N 38°42' W 009°06'0 0.0
2017-Oct-13 01:01N 38°42' W 009°06'0 0.0
2017-Oct-13 00:30N 38°42' W 009°06'0 0.0
2017-Oct-13 00:01N 38°42' W 009°06'0 0.0
2017-Oct-12 23:30N 38°42' W 009°06'0 0.0
2017-Oct-12 23:00N 38°42' W 009°06'0 0.0
2017-Oct-12 22:27N 38°42' W 009°06'0 0.3
2017-Oct-12 22:00N 38°42' W 009°06'0 0.3
2017-Oct-12 21:30N 38°42' W 009°06'0 0.0
2017-Oct-12 20:57N 38°42' W 009°06'0 0.1
2017-Oct-12 20:30N 38°42' W 009°06'0 0.0
2017-Oct-12 20:00N 38°42' W 009°06'0 0.0
2017-Oct-12 19:30N 38°42' W 009°06'0 0.0
2017-Oct-12 19:00N 38°42' W 009°06'0 0.0
2017-Oct-12 18:27N 38°42' W 009°06'0 0.0
2017-Oct-12 17:57N 38°42' W 009°06'0 0.0
2017-Oct-12 17:30N 38°42' W 009°06'0 0.0
2017-Oct-12 16:52N 38°42' W 009°06'0 0.0
2017-Oct-12 16:27N 38°42' W 009°06'0 0.1
2017-Oct-12 16:00N 38°42' W 009°06'0 0.1
2017-Oct-12 15:30N 38°42' W 009°06'0 0.3
2017-Oct-12 15:00N 38°42' W 009°06'0 0.1
2017-Oct-12 14:30N 38°42' W 009°06'0 0.0
2017-Oct-12 14:00N 38°42' W 009°06'0 0.0
2017-Oct-12 13:30N 38°42' W 009°06'0 0.0
2017-Oct-12 13:00N 38°42' W 009°06'0 0.0
2017-Oct-12 12:30N 38°42' W 009°06'0 0.0
2017-Oct-12 11:54N 38°42' W 009°06'0 0.0
2017-Oct-12 11:30N 38°42' W 009°06'0 0.0
2017-Oct-12 11:00N 38°42' W 009°06'0 0.0
2017-Oct-12 10:30N 38°42' W 009°06'0 0.0
2017-Oct-12 09:51N 38°42' W 009°06'0 0.0
2017-Oct-12 09:27N 38°42' W 009°06'0 0.1
2017-Oct-12 09:00N 38°42' W 009°06'0 0.3
2017-Oct-12 08:27N 38°42' W 009°06'0 0.1
2017-Oct-12 08:00N 38°42' W 009°06'0 0.0
2017-Oct-12 07:30N 38°42' W 009°06'0 0.0
2017-Oct-12 07:00N 38°42' W 009°06'0 0.0
2017-Oct-12 06:30N 38°42' W 009°06'0 0.0
2017-Oct-12 06:00N 38°42' W 009°06'0 0.0
2017-Oct-12 05:27N 38°42' W 009°06'0 0.0
2017-Oct-12 04:54N 38°42' W 009°06'0 0.1
2017-Oct-12 04:30N 38°42' W 009°06'0 0.0
2017-Oct-12 04:00N 38°42' W 009°06'0 0.0
2017-Oct-12 03:30N 38°42' W 009°06'0 0.2
2017-Oct-12 02:54N 38°42' W 009°06'0 0.1
2017-Oct-12 02:30N 38°42' W 009°06'0 0.1
2017-Oct-12 01:57N 38°42' W 009°06'0 0.0
2017-Oct-12 01:30N 38°42' W 009°06'0 0.0
2017-Oct-12 00:57N 38°42' W 009°06'0 0.0
2017-Oct-12 00:24N 38°42' W 009°06'0 0.0
2017-Oct-12 00:00N 38°42' W 009°06'0 0.0
2017-Oct-11 23:30N 38°42' W 009°06'0 0.0
2017-Oct-11 23:00N 38°42' W 009°06'0 0.0
2017-Oct-11 22:30N 38°42' W 009°06'0 0.0
2017-Oct-11 22:00N 38°42' W 009°06'0 0.0
2017-Oct-11 21:30N 38°42' W 009°06'0 0.0
2017-Oct-11 21:00N 38°42' W 009°06'0 0.1
2017-Oct-11 20:30N 38°42' W 009°06'0 0.1
2017-Oct-11 20:00N 38°42' W 009°06'0 0.3
2017-Oct-11 19:27N 38°42' W 009°06'0 0.2
2017-Oct-11 19:00N 38°42' W 009°06'0 0.0
2017-Oct-11 18:27N 38°42' W 009°06'0 0.0
2017-Oct-11 18:00N 38°42' W 009°06'0 0.0
2017-Oct-11 17:30N 38°42' W 009°06'0 0.0
2017-Oct-11 16:57N 38°42' W 009°06'0 0.0
2017-Oct-11 00:00N 38°42' W 009°06'0 0.0
2017-Oct-10 23:30N 38°42' W 009°06'0 0.0
2017-Oct-10 23:00N 38°42' W 009°06'0 0.0
2017-Oct-10 22:30N 38°42' W 009°06'0 0.0
2017-Oct-10 22:00N 38°42' W 009°06'0 0.0
2017-Oct-10 21:30N 38°42' W 009°06'0 0.1
2017-Oct-10 21:00N 38°42' W 009°06'  
Track history (hours):
 
Tides and Currents Weather Stations Pressure Air Temp Water Temp Dewpoint Dewpoint Depression Visibility Wind Speed Wind Dir Waves Ship Positions

Diomidis

Last reported at 2017-Oct-20 20:44 UTC. Time now 2017-Nov-24 07:45 UTC.
Position N 03°49' W 007°33'.
Warning: this ship's position is 34 days out of date.

Length 199 m; draft 9.6 m.

Type: Cargo ship. MMSI: 636016499.

Date/timePositionNaut miles runAvg speedWind from/ knotsBaromVisibWave heightAir tempDewpointWater temp
2017-Oct-20 20:44N 03°49' W 007°33'314.3
2017-Oct-20 20:30N 03°49' W 007°36'714.1
2017-Oct-20 20:00N 03°49' W 007°43'714.3
2017-Oct-20 19:29N 03°49' W 007°50'  
2017-Oct-15 11:55N 26°58' W 015°42'713.8
2017-Oct-15 11:26N 27°04' W 015°39'713.8
2017-Oct-15 10:56N 27°10' W 015°36'814.0
2017-Oct-15 10:22N 27°17' W 015°32'614.4
2017-Oct-15 09:59N 27°22' W 015°29'1714.5
2017-Oct-15 08:49N 27°36' W 015°18'413.9
2017-Oct-15 08:31N 27°40' W 015°16'713.7
2017-Oct-15 08:00N 27°45' W 015°11'713.7
2017-Oct-15 07:30N 27°51' W 015°07'713.8
2017-Oct-15 07:01N 27°58' W 015°05'713.9
2017-Oct-15 06:31N 28°04' W 015°02'713.7
2017-Oct-15 06:00N 28°11' W 014°59'714.0
2017-Oct-15 05:31N 28°17' W 014°56'714.2
2017-Oct-15 05:01N 28°24' W 014°53'714.0
2017-Oct-15 04:31N 28°30' W 014°51'713.6
2017-Oct-15 04:00N 28°37' W 014°47'714.0
2017-Oct-15 03:30N 28°43' W 014°44'714.3
2017-Oct-15 03:00N 28°49' W 014°40'714.3
2017-Oct-15 02:30N 28°56' W 014°37'714.2
2017-Oct-15 02:00N 29°02' W 014°34'714.2
2017-Oct-15 01:30N 29°09' W 014°30'714.3
2017-Oct-15 01:00N 29°15' W 014°27'7113.6
2017-Oct-14 19:48N 30°20' W 013°53'413.6
2017-Oct-14 19:30N 30°24' W 013°51'713.4
2017-Oct-14 19:00N 30°30' W 013°48'713.6
2017-Oct-14 18:30N 30°36' W 013°45'2813.7
2017-Oct-14 16:27N 31°02' W 013°32'20813.9
2017-Oct-14 01:29N 34°11' W 011°51'2113.4
2017-Oct-13 23:54N 34°31' W 011°41'513.4
2017-Oct-13 23:30N 34°36' W 011°38'713.7
2017-Oct-13 23:00N 34°42' W 011°35'713.6
2017-Oct-13 22:30N 34°48' W 011°31'713.5
2017-Oct-13 22:00N 34°54' W 011°28'713.6
2017-Oct-13 21:30N 35°00' W 011°24'713.7
2017-Oct-13 21:00N 35°07' W 011°21'713.9
2017-Oct-13 20:31N 35°13' W 011°17'714.1
2017-Oct-13 20:01N 35°20' W 011°14'714.0
2017-Oct-13 19:30N 35°26' W 011°11'713.8
2017-Oct-13 19:00N 35°32' W 011°07'713.8
2017-Oct-13 18:30N 35°38' W 011°03'713.9
2017-Oct-13 18:00N 35°45' W 010°60'714.2
2017-Oct-13 17:30N 35°51' W 010°56'714.0
2017-Oct-13 17:00N 35°58' W 010°53'714.0
2017-Oct-13 16:30N 36°04' W 010°49'714.3
2017-Oct-13 16:00N 36°11' W 010°45'714.1
2017-Oct-13 15:30N 36°17' W 010°42'713.7
2017-Oct-13 15:00N 36°23' W 010°39'7013.6
2017-Oct-13 09:52N 37°27' W 010°03'3113.7
2017-Oct-13 07:35N 37°56' W 009°47'113.4
2017-Oct-13 07:30N 37°57' W 009°46'713.1
2017-Oct-13 06:58N 38°03' W 009°43'613.0
2017-Oct-13 06:30N 38°08' W 009°39'713.1
2017-Oct-13 06:00N 38°14' W 009°36'713.6
2017-Oct-13 05:30N 38°20' W 009°33'713.4
2017-Oct-13 05:00N 38°27' W 009°29'613.0
2017-Oct-13 04:30N 38°32' W 009°25'510.5
2017-Oct-13 04:00N 38°37' W 009°23'5 9.7
2017-Oct-13 03:30N 38°40' W 009°18'710.0
2017-Oct-13 02:48N 38°42' W 009°09'2 6.6
2017-Oct-13 02:30N 38°42' W 009°06'0 0.1
2017-Oct-13 02:00N 38°42' W 009°06'0 0.0
2017-Oct-13 01:31N 38°42' W 009°06'0 0.0
2017-Oct-13 01:01N 38°42' W 009°06'0 0.0
2017-Oct-13 00:30N 38°42' W 009°06'0 0.0
2017-Oct-13 00:01N 38°42' W 009°06'0 0.0
2017-Oct-12 23:30N 38°42' W 009°06'0 0.0
2017-Oct-12 23:00N 38°42' W 009°06'0 0.0
2017-Oct-12 22:27N 38°42' W 009°06'0 0.3
2017-Oct-12 22:00N 38°42' W 009°06'0 0.3
2017-Oct-12 21:30N 38°42' W 009°06'0 0.0
2017-Oct-12 20:57N 38°42' W 009°06'0 0.1
2017-Oct-12 20:30N 38°42' W 009°06'0 0.0
2017-Oct-12 20:00N 38°42' W 009°06'0 0.0
2017-Oct-12 19:30N 38°42' W 009°06'0 0.0
2017-Oct-12 19:00N 38°42' W 009°06'0 0.0
2017-Oct-12 18:27N 38°42' W 009°06'0 0.0
2017-Oct-12 17:57N 38°42' W 009°06'0 0.0
2017-Oct-12 17:30N 38°42' W 009°06'0 0.0
2017-Oct-12 16:52N 38°42' W 009°06'0 0.0
2017-Oct-12 16:27N 38°42' W 009°06'0 0.1
2017-Oct-12 16:00N 38°42' W 009°06'0 0.1
2017-Oct-12 15:30N 38°42' W 009°06'0 0.3
2017-Oct-12 15:00N 38°42' W 009°06'0 0.1
2017-Oct-12 14:30N 38°42' W 009°06'0 0.0
2017-Oct-12 14:00N 38°42' W 009°06'0 0.0
2017-Oct-12 13:30N 38°42' W 009°06'0 0.0
2017-Oct-12 13:00N 38°42' W 009°06'0 0.0
2017-Oct-12 12:30N 38°42' W 009°06'0 0.0
2017-Oct-12 11:54N 38°42' W 009°06'0 0.0
2017-Oct-12 11:30N 38°42' W 009°06'0 0.0
2017-Oct-12 11:00N 38°42' W 009°06'0 0.0
2017-Oct-12 10:30N 38°42' W 009°06'0 0.0
2017-Oct-12 09:51N 38°42' W 009°06'0 0.0
2017-Oct-12 09:27N 38°42' W 009°06'0 0.1
2017-Oct-12 09:00N 38°42' W 009°06'0 0.3
2017-Oct-12 08:27N 38°42' W 009°06'0 0.1
2017-Oct-12 08:00N 38°42' W 009°06'0 0.0
2017-Oct-12 07:30N 38°42' W 009°06'0 0.0
2017-Oct-12 07:00N 38°42' W 009°06'0 0.0
2017-Oct-12 06:30N 38°42' W 009°06'0 0.0
2017-Oct-12 06:00N 38°42' W 009°06'0 0.0
2017-Oct-12 05:27N 38°42' W 009°06'0 0.0
2017-Oct-12 04:54N 38°42' W 009°06'0 0.1
2017-Oct-12 04:30N 38°42' W 009°06'0 0.0
2017-Oct-12 04:00N 38°42' W 009°06'0 0.0
2017-Oct-12 03:30N 38°42' W 009°06'0 0.2
2017-Oct-12 02:54N 38°42' W 009°06'0 0.1
2017-Oct-12 02:30N 38°42' W 009°06'0 0.1
2017-Oct-12 01:57N 38°42' W 009°06'0 0.0
2017-Oct-12 01:30N 38°42' W 009°06'0 0.0
2017-Oct-12 00:57N 38°42' W 009°06'0 0.0
2017-Oct-12 00:24N 38°42' W 009°06'0 0.0
2017-Oct-12 00:00N 38°42' W 009°06'0 0.0
2017-Oct-11 23:30N 38°42' W 009°06'0 0.0
2017-Oct-11 23:00N 38°42' W 009°06'0 0.0
2017-Oct-11 22:30N 38°42' W 009°06'0 0.0
2017-Oct-11 22:00N 38°42' W 009°06'0 0.0
2017-Oct-11 21:30N 38°42' W 009°06'0 0.0
2017-Oct-11 21:00N 38°42' W 009°06'0 0.1
2017-Oct-11 20:30N 38°42' W 009°06'0 0.1
2017-Oct-11 20:00N 38°42' W 009°06'0 0.3
2017-Oct-11 19:27N 38°42' W 009°06'0 0.2
2017-Oct-11 19:00N 38°42' W 009°06'0 0.0
2017-Oct-11 18:27N 38°42' W 009°06'0 0.0
2017-Oct-11 18:00N 38°42' W 009°06'0 0.0
2017-Oct-11 17:30N 38°42' W 009°06'0 0.0
2017-Oct-11 16:57N 38°42' W 009°06'0 0.0
2017-Oct-11 00:00N 38°42' W 009°06'0 0.0
2017-Oct-10 23:30N 38°42' W 009°06'0 0.0
2017-Oct-10 23:00N 38°42' W 009°06'0 0.0
2017-Oct-10 22:30N 38°42' W 009°06'0 0.0
2017-Oct-10 22:00N 38°42' W 009°06'0 0.0
2017-Oct-10 21:30N 38°42' W 009°06'0 0.1
2017-Oct-10 21:00N 38°42' W 009°06'  

Dump ship's entire track history